sensor_id;sensor_type;location;lat;lon;timestamp;pressure;altitude;pressure_sealevel;temperature;humidity
70206;BME280;57593;55.896;37.396;2022-12-29T00:00:24;99152.34;;;0.26;100.00
70206;BME280;57593;55.896;37.396;2022-12-29T00:00:55;99152.59;;;0.29;100.00
70206;BME280;57593;55.896;37.396;2022-12-29T00:01:25;99156.22;;;0.33;100.00
70206;BME280;57593;55.896;37.396;2022-12-29T00:01:56;99151.59;;;0.25;100.00
70206;BME280;57593;55.896;37.396;2022-12-29T00:02:27;99154.75;;;0.12;100.00
70206;BME280;57593;55.896;37.396;2022-12-29T00:02:57;99158.88;;;0.18;100.00
70206;BME280;57593;55.896;37.396;2022-12-29T00:03:28;99168.75;;;0.16;100.00
70206;BME280;57593;55.896;37.396;2022-12-29T00:03:59;99158.16;;;0.02;100.00
70206;BME280;57593;55.896;37.396;2022-12-29T00:04:30;99153.94;;;0.16;100.00
70206;BME280;57593;55.896;37.396;2022-12-29T00:05:00;99157.56;;;0.15;100.00
70206;BME280;57593;55.896;37.396;2022-12-29T00:05:31;99157.31;;;0.17;100.00
70206;BME280;57593;55.896;37.396;2022-12-29T00:06:02;99154.47;;;0.13;100.00
70206;BME280;57593;55.896;37.396;2022-12-29T00:06:33;99156.81;;;0.15;100.00
70206;BME280;57593;55.896;37.396;2022-12-29T00:07:04;99167.22;;;0.05;100.00
70206;BME280;57593;55.896;37.396;2022-12-29T00:07:35;99160.50;;;-0.02;100.00
70206;BME280;57593;55.896;37.396;2022-12-29T00:08:06;99153.25;;;-0.05;100.00
70206;BME280;57593;55.896;37.396;2022-12-29T00:08:36;99161.31;;;-0.16;100.00
70206;BME280;57593;55.896;37.396;2022-12-29T00:09:12;99161.56;;;-0.18;100.00
70206;BME280;57593;55.896;37.396;2022-12-29T00:09:43;99166.75;;;-0.13;100.00
70206;BME280;57593;55.896;37.396;2022-12-29T00:10:13;99160.28;;;-0.21;100.00
70206;BME280;57593;55.896;37.396;2022-12-29T00:10:44;99156.66;;;-0.25;100.00
70206;BME280;57593;55.896;37.396;2022-12-29T00:11:18;99164.69;;;-0.16;100.00
70206;BME280;57593;55.896;37.396;2022-12-29T00:11:49;99156.91;;;-0.21;100.00
70206;BME280;57593;55.896;37.396;2022-12-29T00:12:22;99155.09;;;-0.21;100.00
70206;BME280;57593;55.896;37.396;2022-12-29T00:12:53;99150.16;;;-0.17;100.00
70206;BME280;57593;55.896;37.396;2022-12-29T00:13:42;99151.75;;;-0.26;100.00
70206;BME280;57593;55.896;37.396;2022-12-29T00:14:32;99155.09;;;-0.15;100.00
70206;BME280;57593;55.896;37.396;2022-12-29T00:15:21;99166.50;;;-0.16;100.00
70206;BME280;57593;55.896;37.396;2022-12-29T00:16:07;99152.22;;;-0.09;100.00
70206;BME280;57593;55.896;37.396;2022-12-29T00:16:41;99153.25;;;-0.15;100.00
70206;BME280;57593;55.896;37.396;2022-12-29T00:17:12;99154.81;;;-0.14;100.00
70206;BME280;57593;55.896;37.396;2022-12-29T00:17:43;99164.69;;;-0.11;100.00
70206;BME280;57593;55.896;37.396;2022-12-29T00:18:13;99170.63;;;0.00;100.00
70206;BME280;57593;55.896;37.396;2022-12-29T00:18:44;99162.09;;;-0.11;100.00
70206;BME280;57593;55.896;37.396;2022-12-29T00:19:15;99155.84;;;-0.05;100.00
70206;BME280;57593;55.896;37.396;2022-12-29T00:20:04;99166.25;;;-0.20;100.00
70206;BME280;57593;55.896;37.396;2022-12-29T00:20:54;99162.59;;;-0.09;100.00
70206;BME280;57593;55.896;37.396;2022-12-29T00:21:44;99167.28;;;-0.21;100.00
70206;BME280;57593;55.896;37.396;2022-12-29T00:22:33;99166.00;;;-0.29;100.00
70206;BME280;57593;55.896;37.396;2022-12-29T00:23:22;99156.94;;;-0.37;100.00
70206;BME280;57593;55.896;37.396;2022-12-29T00:24:21;99166.28;;;-0.41;100.00
70206;BME280;57593;55.896;37.396;2022-12-29T00:24:57;99166.03;;;-0.49;100.00
70206;BME280;57593;55.896;37.396;2022-12-29T00:25:47;99173.81;;;-0.60;100.00
70206;BME280;57593;55.896;37.396;2022-12-29T00:27:48;99162.38;;;-0.48;100.00
70206;BME280;57593;55.896;37.396;2022-12-29T00:28:37;99166.81;;;-0.54;100.00
70206;BME280;57593;55.896;37.396;2022-12-29T00:29:27;99174.06;;;-0.46;100.00
70206;BME280;57593;55.896;37.396;2022-12-29T00:30:21;99162.38;;;-0.48;100.00
70206;BME280;57593;55.896;37.396;2022-12-29T00:31:11;99164.50;;;-0.61;100.00
70206;BME280;57593;55.896;37.396;2022-12-29T00:32:00;99167.59;;;-0.43;100.00
70206;BME280;57593;55.896;37.396;2022-12-29T00:32:50;99163.19;;;-0.63;100.00
70206;BME280;57593;55.896;37.396;2022-12-29T00:33:40;99160.88;;;-0.55;100.00
70206;BME280;57593;55.896;37.396;2022-12-29T00:34:29;99157.47;;;-0.55;100.00
70206;BME280;57593;55.896;37.396;2022-12-29T00:35:28;99159.78;;;-0.48;100.00
70206;BME280;57593;55.896;37.396;2022-12-29T00:36:09;99164.19;;;-0.33;100.00
70206;BME280;57593;55.896;37.396;2022-12-29T00:36:42;99165.22;;;-0.34;100.00
70206;BME280;57593;55.896;37.396;2022-12-29T00:37:14;99161.09;;;-0.41;100.00
70206;BME280;57593;55.896;37.396;2022-12-29T00:37:46;99155.38;;;-0.43;100.00
70206;BME280;57593;55.896;37.396;2022-12-29T00:38:38;99166.78;;;-0.44;100.00
70206;BME280;57593;55.896;37.396;2022-12-29T00:39:29;99156.16;;;-0.37;100.00
70206;BME280;57593;55.896;37.396;2022-12-29T00:40:19;99164.97;;;-0.28;100.00
70206;BME280;57593;55.896;37.396;2022-12-29T00:41:08;99154.63;;;-0.43;100.00
70206;BME280;57593;55.896;37.396;2022-12-29T00:42:05;99158.75;;;-0.47;100.00
70206;BME280;57593;55.896;37.396;2022-12-29T00:42:54;99155.66;;;-0.49;100.00
70206;BME280;57593;55.896;37.396;2022-12-29T00:43:54;99166.56;;;-0.68;100.00
70206;BME280;57593;55.896;37.396;2022-12-29T00:44:36;99163.19;;;-0.53;100.00
70206;BME280;57593;55.896;37.396;2022-12-29T00:45:07;99162.13;;;-0.52;100.00
70206;BME280;57593;55.896;37.396;2022-12-29T00:45:41;99170.97;;;-0.58;100.00
70206;BME280;57593;55.896;37.396;2022-12-29T00:46:11;99166.31;;;-0.56;100.00
70206;BME280;57593;55.896;37.396;2022-12-29T00:46:42;99172.25;;;-0.50;100.00
70206;BME280;57593;55.896;37.396;2022-12-29T00:47:13;99171.47;;;-0.61;100.00
70206;BME280;57593;55.896;37.396;2022-12-29T00:47:43;99167.63;;;-0.64;100.00
70206;BME280;57593;55.896;37.396;2022-12-29T00:48:14;99156.44;;;-0.54;100.00
70206;BME280;57593;55.896;37.396;2022-12-29T00:48:45;99168.09;;;-0.41;100.00
70206;BME280;57593;55.896;37.396;2022-12-29T00:49:34;99170.97;;;-0.53;100.00
70206;BME280;57593;55.896;37.396;2022-12-29T00:50:05;99167.84;;;-0.50;100.00
70206;BME280;57593;55.896;37.396;2022-12-29T00:50:35;99173.03;;;-0.45;100.00
70206;BME280;57593;55.896;37.396;2022-12-29T00:51:07;99163.94;;;-0.42;100.00
70206;BME280;57593;55.896;37.396;2022-12-29T00:51:37;99173.03;;;-0.45;100.00
70206;BME280;57593;55.896;37.396;2022-12-29T00:52:10;99171.22;;;-0.49;100.00
70206;BME280;57593;55.896;37.396;2022-12-29T00:52:41;99168.13;;;-0.46;100.00
70206;BME280;57593;55.896;37.396;2022-12-29T00:53:12;99167.84;;;-0.50;100.00
70206;BME280;57593;55.896;37.396;2022-12-29T00:53:42;99168.63;;;-0.60;100.00
70206;BME280;57593;55.896;37.396;2022-12-29T00:54:14;99168.38;;;-0.53;100.00
70206;BME280;57593;55.896;37.396;2022-12-29T00:54:45;99168.38;;;-0.48;100.00
70206;BME280;57593;55.896;37.396;2022-12-29T00:55:16;99165.25;;;-0.55;100.00
70206;BME280;57593;55.896;37.396;2022-12-29T00:55:46;99173.31;;;-0.62;100.00
70206;BME280;57593;55.896;37.396;2022-12-29T00:56:17;99164.75;;;-0.62;100.00
70206;BME280;57593;55.896;37.396;2022-12-29T00:56:49;99171.22;;;-0.65;100.00
70206;BME280;57593;55.896;37.396;2022-12-29T00:57:21;99172.53;;;-0.62;100.00
70206;BME280;57593;55.896;37.396;2022-12-29T00:57:51;99178.22;;;-0.55;100.00
70206;BME280;57593;55.896;37.396;2022-12-29T00:58:22;99176.16;;;-0.53;100.00
70206;BME280;57593;55.896;37.396;2022-12-29T00:58:52;99177.47;;;-0.56;100.00
70206;BME280;57593;55.896;37.396;2022-12-29T00:59:23;99185.25;;;-0.56;100.00
70206;BME280;57593;55.896;37.396;2022-12-29T00:59:54;99173.31;;;-0.67;100.00
70206;BME280;57593;55.896;37.396;2022-12-29T01:00:25;99166.56;;;-0.68;100.00
70206;BME280;57593;55.896;37.396;2022-12-29T01:01:06;99164.50;;;-0.61;100.00
70206;BME280;57593;55.896;37.396;2022-12-29T01:01:38;99172.00;;;-0.54;100.00
70206;BME280;57593;55.896;37.396;2022-12-29T01:02:09;99170.44;;;-0.55;100.00
70206;BME280;57593;55.896;37.396;2022-12-29T01:02:40;99167.84;;;-0.50;100.00
70206;BME280;57593;55.896;37.396;2022-12-29T01:03:10;99169.91;;;-0.47;100.00
70206;BME280;57593;55.896;37.396;2022-12-29T01:03:41;99169.13;;;-0.42;100.00
70206;BME280;57593;55.896;37.396;2022-12-29T01:04:12;99171.47;;;-0.30;100.00
70206;BME280;57593;55.896;37.396;2022-12-29T01:04:43;99168.63;;;-0.34;100.00
70206;BME280;57593;55.896;37.396;2022-12-29T01:05:13;99167.56;;;-0.28;100.00
70206;BME280;57593;55.896;37.396;2022-12-29T01:05:44;99169.16;;;-0.37;100.00
70206;BME280;57593;55.896;37.396;2022-12-29T01:06:16;99173.53;;;-0.38;100.00
70206;BME280;57593;55.896;37.396;2022-12-29T01:06:47;99168.38;;;-0.48;100.00
70206;BME280;57593;55.896;37.396;2022-12-29T01:07:19;99181.59;;;-0.44;100.00
70206;BME280;57593;55.896;37.396;2022-12-29T01:07:50;99175.88;;;-0.36;100.00
70206;BME280;57593;55.896;37.396;2022-12-29T01:08:20;99174.09;;;-0.51;100.00
70206;BME280;57593;55.896;37.396;2022-12-29T01:08:51;99165.78;;;-0.48;100.00
70206;BME280;57593;55.896;37.396;2022-12-29T01:09:42;99164.47;;;-0.45;100.00
70206;BME280;57593;55.896;37.396;2022-12-29T01:10:32;99177.69;;;-0.37;100.00
70206;BME280;57593;55.896;37.396;2022-12-29T01:11:08;99173.78;;;-0.39;100.00
70206;BME280;57593;55.896;37.396;2022-12-29T01:11:40;99191.19;;;-0.55;100.00
70206;BME280;57593;55.896;37.396;2022-12-29T01:12:11;99187.31;;;-0.58;100.00
70206;BME280;57593;55.896;37.396;2022-12-29T01:12:42;99169.16;;;-0.52;100.00
70206;BME280;57593;55.896;37.396;2022-12-29T01:13:15;99178.22;;;-0.50;100.00
70206;BME280;57593;55.896;37.396;2022-12-29T01:13:46;99179.28;;;-0.51;100.00
70206;BME280;57593;55.896;37.396;2022-12-29T01:14:18;99182.38;;;-0.54;100.00
70206;BME280;57593;55.896;37.396;2022-12-29T01:14:49;99181.88;;;-0.56;100.00
70206;BME280;57593;55.896;37.396;2022-12-29T01:15:19;99181.88;;;-0.51;100.00
70206;BME280;57593;55.896;37.396;2022-12-29T01:15:53;99178.22;;;-0.50;100.00
70206;BME280;57593;55.896;37.396;2022-12-29T01:16:23;99179.53;;;-0.47;100.00
70206;BME280;57593;55.896;37.396;2022-12-29T01:16:55;99180.03;;;-0.45;100.00
70206;BME280;57593;55.896;37.396;2022-12-29T01:17:25;99187.31;;;-0.47;100.00
70206;BME280;57593;55.896;37.396;2022-12-29T01:17:56;99181.88;;;-0.56;100.00
70206;BME280;57593;55.896;37.396;2022-12-29T01:18:28;99189.13;;;-0.48;100.00
70206;BME280;57593;55.896;37.396;2022-12-29T01:18:59;99185.50;;;-0.52;100.00
70206;BME280;57593;55.896;37.396;2022-12-29T01:19:31;99185.22;;;-0.40;100.00
70206;BME280;57593;55.896;37.396;2022-12-29T01:20:03;99180.31;;;-0.42;100.00
70206;BME280;57593;55.896;37.396;2022-12-29T01:20:34;99184.69;;;-0.42;100.00
70206;BME280;57593;55.896;37.396;2022-12-29T01:21:06;99183.16;;;-0.43;100.00
70206;BME280;57593;55.896;37.396;2022-12-29T01:21:36;99175.63;;;-0.55;100.00
70206;BME280;57593;55.896;37.396;2022-12-29T01:22:07;99180.31;;;-0.62;100.00
70206;BME280;57593;55.896;37.396;2022-12-29T01:22:38;99177.19;;;-0.64;100.00
70206;BME280;57593;55.896;37.396;2022-12-29T01:23:09;99174.09;;;-0.66;100.00
70206;BME280;57593;55.896;37.396;2022-12-29T01:23:40;99184.97;;;-0.64;100.00
70206;BME280;57593;55.896;37.396;2022-12-29T01:24:10;99181.06;;;-0.57;100.00
70206;BME280;57593;55.896;37.396;2022-12-29T01:24:41;99178.50;;;-0.57;100.00
70206;BME280;57593;55.896;37.396;2022-12-29T01:25:11;99179.28;;;-0.56;100.00
70206;BME280;57593;55.896;37.396;2022-12-29T01:25:42;99191.22;;;-0.60;100.00
70206;BME280;57593;55.896;37.396;2022-12-29T01:26:14;99197.94;;;-0.75;100.00
70206;BME280;57593;55.896;37.396;2022-12-29T01:26:46;99188.63;;;-0.65;100.00
70206;BME280;57593;55.896;37.396;2022-12-29T01:27:17;99188.34;;;-0.69;100.00
70206;BME280;57593;55.896;37.396;2022-12-29T01:27:47;99191.72;;;-0.68;100.00
70206;BME280;57593;55.896;37.396;2022-12-29T01:28:18;99188.88;;;-0.67;100.00
70206;BME280;57593;55.896;37.396;2022-12-29T01:28:49;99191.44;;;-0.87;100.00
70206;BME280;57593;55.896;37.396;2022-12-29T01:29:19;99188.34;;;-0.79;100.00
70206;BME280;57593;55.896;37.396;2022-12-29T01:29:50;99196.13;;;-0.79;100.00
70206;BME280;57593;55.896;37.396;2022-12-29T01:30:20;99197.16;;;-0.85;100.00
70206;BME280;57593;55.896;37.396;2022-12-29T01:30:51;99184.72;;;-0.83;100.00
70206;BME280;57593;55.896;37.396;2022-12-29T01:31:22;99188.59;;;-0.96;100.00
70206;BME280;57593;55.896;37.396;2022-12-29T01:31:52;99192.72;;;-0.95;100.00
70206;BME280;57593;55.896;37.396;2022-12-29T01:32:23;99193.25;;;-0.98;100.00
70206;BME280;57593;55.896;37.396;2022-12-29T01:32:54;99194.28;;;-0.99;100.00
70206;BME280;57593;55.896;37.396;2022-12-29T01:33:24;99187.53;;;-0.95;100.00
70206;BME280;57593;55.896;37.396;2022-12-29T01:33:55;99188.31;;;-1.10;100.00
70206;BME280;57593;55.896;37.396;2022-12-29T01:34:25;99198.94;;;-1.01;100.00
70206;BME280;57593;55.896;37.396;2022-12-29T01:34:56;99192.47;;;-0.99;100.00
70206;BME280;57593;55.896;37.396;2022-12-29T01:35:27;99180.81;;;-0.96;100.00
70206;BME280;57593;55.896;37.396;2022-12-29T01:36:02;99197.13;;;-0.96;100.00
70206;BME280;57593;55.896;37.396;2022-12-29T01:36:33;99194.81;;;-0.92;100.00
70206;BME280;57593;55.896;37.396;2022-12-29T01:37:04;99193.00;;;-0.92;100.00
70206;BME280;57593;55.896;37.396;2022-12-29T01:37:35;99201.78;;;-1.03;100.00
70206;BME280;57593;55.896;37.396;2022-12-29T01:38:06;99194.28;;;-0.99;100.00
70206;BME280;57593;55.896;37.396;2022-12-29T01:38:39;99193.00;;;-0.86;100.00
70206;BME280;57593;55.896;37.396;2022-12-29T01:39:10;99195.84;;;-0.83;100.00
70206;BME280;57593;55.896;37.396;2022-12-29T01:39:41;99202.59;;;-0.82;100.00
70206;BME280;57593;55.896;37.396;2022-12-29T01:40:11;99191.19;;;-0.86;100.00
70206;BME280;57593;55.896;37.396;2022-12-29T01:40:44;99199.22;;;-0.93;100.00
70206;BME280;57593;55.896;37.396;2022-12-29T01:41:16;99201.81;;;-0.93;100.00
70206;BME280;57593;55.896;37.396;2022-12-29T01:41:47;99201.81;;;-0.87;100.00
70206;BME280;57593;55.896;37.396;2022-12-29T01:42:23;99194.81;;;-0.92;100.00
70206;BME280;57593;55.896;37.396;2022-12-29T01:42:54;99195.31;;;-1.00;100.00
70206;BME280;57593;55.896;37.396;2022-12-29T01:45:11;99195.56;;;-0.97;100.00
70206;BME280;57593;55.896;37.396;2022-12-29T01:45:23;99194.81;;;-0.92;100.00
70206;BME280;57593;55.896;37.396;2022-12-29T01:45:53;99190.94;;;-0.89;100.00
70206;BME280;57593;55.896;37.396;2022-12-29T01:46:40;99196.38;;;-0.81;100.00
70206;BME280;57593;55.896;37.396;2022-12-29T01:47:14;99185.47;;;-1.03;100.00
70206;BME280;57593;55.896;37.396;2022-12-29T01:47:50;99200.75;;;-0.97;100.00
70206;BME280;57593;55.896;37.396;2022-12-29T01:48:22;99191.44;;;-0.93;100.00
70206;BME280;57593;55.896;37.396;2022-12-29T01:49:24;99190.16;;;-0.85;100.00
70206;BME280;57593;55.896;37.396;2022-12-29T01:50:01;99191.69;;;-0.89;100.00
70206;BME280;57593;55.896;37.396;2022-12-29T01:50:36;99179.75;;;-0.95;100.00
70206;BME280;57593;55.896;37.396;2022-12-29T01:51:10;99182.38;;;-0.90;100.00
70206;BME280;57593;55.896;37.396;2022-12-29T01:51:53;99182.88;;;-0.88;100.00
70206;BME280;57593;55.896;37.396;2022-12-29T01:52:28;99182.34;;;-0.95;100.00
70206;BME280;57593;55.896;37.396;2022-12-29T01:53:03;99189.88;;;-1.04;100.00
70206;BME280;57593;55.896;37.396;2022-12-29T01:53:36;99180.81;;;-0.96;100.00
70206;BME280;57593;55.896;37.396;2022-12-29T01:54:14;99183.41;;;-0.96;100.00
70206;BME280;57593;55.896;37.396;2022-12-29T01:54:51;99182.34;;;-0.95;100.00
70206;BME280;57593;55.896;37.396;2022-12-29T01:55:24;99186.50;;;-0.99;100.00
70206;BME280;57593;55.896;37.396;2022-12-29T01:56:00;99193.50;;;-1.10;100.00
70206;BME280;57593;55.896;37.396;2022-12-29T01:56:32;99182.31;;;-1.16;100.00
70206;BME280;57593;55.896;37.396;2022-12-29T01:57:08;99184.94;;;-1.05;100.00
70206;BME280;57593;55.896;37.396;2022-12-29T01:57:42;99191.06;;;-1.42;100.00
70206;BME280;57593;55.896;37.396;2022-12-29T01:58:18;99177.13;;;-1.26;100.00
70206;BME280;57593;55.896;37.396;2022-12-29T01:59:01;99187.19;;;-1.40;100.00
70206;BME280;57593;55.896;37.396;2022-12-29T01:59:36;99187.72;;;-1.38;100.00
70206;BME280;57593;55.896;37.396;2022-12-29T02:00:10;99185.69;;;-1.31;100.00
70206;BME280;57593;55.896;37.396;2022-12-29T02:00:45;99184.63;;;-1.30;100.00
70206;BME280;57593;55.896;37.396;2022-12-29T02:01:18;99186.69;;;-1.27;100.00
70206;BME280;57593;55.896;37.396;2022-12-29T02:01:50;99178.16;;;-1.32;100.00
70206;BME280;57593;55.896;37.396;2022-12-29T02:02:22;99192.13;;;-1.28;100.00
70206;BME280;57593;55.896;37.396;2022-12-29T02:02:54;99188.78;;;-1.34;100.00
70206;BME280;57593;55.896;37.396;2022-12-29T02:03:25;99178.41;;;-1.34;100.00
70206;BME280;57593;55.896;37.396;2022-12-29T02:03:58;99185.38;;;-1.34;100.00
70206;BME280;57593;55.896;37.396;2022-12-29T02:04:32;99186.97;;;-1.28;100.00
70206;BME280;57593;55.896;37.396;2022-12-29T02:05:09;99189.59;;;-1.18;100.00
70206;BME280;57593;55.896;37.396;2022-12-29T02:06:47;99190.81;;;-1.36;100.00
70206;BME280;57593;55.896;37.396;2022-12-29T02:07:23;99197.81;;;-1.41;100.00
70206;BME280;57593;55.896;37.396;2022-12-29T02:07:55;99201.38;;;-1.53;100.00
70206;BME280;57593;55.896;37.396;2022-12-29T02:08:28;99197.47;;;-1.66;100.00
70206;BME280;57593;55.896;37.396;2022-12-29T02:08:59;99196.97;;;-1.57;100.00
70206;BME280;57593;55.896;37.396;2022-12-29T02:09:30;99191.31;;;-1.49;100.00
70206;BME280;57593;55.896;37.396;2022-12-29T02:10:01;99199.34;;;-1.46;100.00
70206;BME280;57593;55.896;37.396;2022-12-29T02:10:35;99200.69;;;-1.33;100.00
70206;BME280;57593;55.896;37.396;2022-12-29T02:11:07;99200.72;;;-1.28;100.00
70206;BME280;57593;55.896;37.396;2022-12-29T02:11:39;99206.16;;;-1.19;100.00
70206;BME280;57593;55.896;37.396;2022-12-29T02:12:10;99206.72;;;-1.12;100.00
70206;BME280;57593;55.896;37.396;2022-12-29T02:12:41;99210.56;;;-1.14;100.00
70206;BME280;57593;55.896;37.396;2022-12-29T02:13:14;99211.13;;;-1.02;100.00
70206;BME280;57593;55.896;37.396;2022-12-29T02:14:09;99213.97;;;-1.03;100.00
70206;BME280;57593;55.896;37.396;2022-12-29T02:14:41;99208.28;;;-1.05;100.00
70206;BME280;57593;55.896;37.396;2022-12-29T02:15:12;99212.69;;;-1.06;100.00
70206;BME280;57593;55.896;37.396;2022-12-29T02:21:56;99217.53;;;-1.35;100.00
70206;BME280;57593;55.896;37.396;2022-12-29T02:22:05;99222.47;;;-1.29;100.00
70206;BME280;57593;55.896;37.396;2022-12-29T02:25:30;99226.25;;;-1.52;100.00
70206;BME280;57593;55.896;37.396;2022-12-29T02:27:43;99218.47;;;-1.62;100.00
70206;BME280;57593;55.896;37.396;2022-12-29T02:32:18;99219.50;;;-1.63;100.00
70206;BME280;57593;55.896;37.396;2022-12-29T02:35:36;99232.44;;;-1.63;100.00
70206;BME280;57593;55.896;37.396;2022-12-29T02:37:00;99237.13;;;-1.55;100.00
70206;BME280;57593;55.896;37.396;2022-12-29T02:37:41;99224.94;;;-1.59;100.00
70206;BME280;57593;55.896;37.396;2022-12-29T02:39:48;99230.94;;;-1.49;100.00
70206;BME280;57593;55.896;37.396;2022-12-29T02:40:27;99218.22;;;-1.60;100.00
70206;BME280;57593;55.896;37.396;2022-12-29T02:41:16;99217.72;;;-1.52;100.00
70206;BME280;57593;55.896;37.396;2022-12-29T02:42:03;99221.84;;;-1.56;100.00
70206;BME280;57593;55.896;37.396;2022-12-29T02:43:35;99222.88;;;-1.57;100.00
70206;BME280;57593;55.896;37.396;2022-12-29T02:46:31;99211.56;;;-1.89;100.00
70206;BME280;57593;55.896;37.396;2022-12-29T02:47:14;99212.13;;;-1.87;100.00
70206;BME280;57593;55.896;37.396;2022-12-29T02:48:57;99212.59;;;-1.95;100.00
70206;BME280;57593;55.896;37.396;2022-12-29T02:49:51;99222.94;;;-1.95;100.00
70206;BME280;57593;55.896;37.396;2022-12-29T02:50:31;99214.56;;;-2.07;100.00
70206;BME280;57593;55.896;37.396;2022-12-29T02:51:09;99214.16;;;-1.89;100.00
70206;BME280;57593;55.896;37.396;2022-12-29T02:52:26;99223.88;;;-2.11;100.00
70206;BME280;57593;55.896;37.396;2022-12-29T02:53:00;99220.31;;;-2.05;100.00
70206;BME280;57593;55.896;37.396;2022-12-29T02:53:33;99222.66;;;-1.99;100.00
70206;BME280;57593;55.896;37.396;2022-12-29T02:54:23;99228.16;;;-1.90;100.00
70206;BME280;57593;55.896;37.396;2022-12-29T02:55:14;99228.25;;;-1.74;100.00
70206;BME280;57593;55.896;37.396;2022-12-29T02:55:48;99230.34;;;-1.71;100.00
70206;BME280;57593;55.896;37.396;2022-12-29T02:56:20;99231.25;;;-1.93;100.00
70206;BME280;57593;55.896;37.396;2022-12-29T02:56:51;99223.63;;;-2.10;100.00
70206;BME280;57593;55.896;37.396;2022-12-29T02:58:15;99231.03;;;-1.81;100.00
70206;BME280;57593;55.896;37.396;2022-12-29T02:58:47;99234.38;;;-1.86;100.00
70206;BME280;57593;55.896;37.396;2022-12-29T02:59:20;99225.75;;;-2.02;100.00
70206;BME280;57593;55.896;37.396;2022-12-29T02:59:55;99230.69;;;-2.00;100.00
70206;BME280;57593;55.896;37.396;2022-12-29T03:00:27;99226.41;;;-1.79;100.00
70206;BME280;57593;55.896;37.396;2022-12-29T03:07:23;99222.19;;;-1.90;100.00
70206;BME280;57593;55.896;37.396;2022-12-29T03:08:49;99226.91;;;-1.82;100.00
70206;BME280;57593;55.896;37.396;2022-12-29T03:10:54;99220.16;;;-1.83;100.00
70206;BME280;57593;55.896;37.396;2022-12-29T03:11:34;99229.44;;;-1.92;100.00
70206;BME280;57593;55.896;37.396;2022-12-29T03:12:35;99224.78;;;-1.90;100.00
70206;BME280;57593;55.896;37.396;2022-12-29T03:13:47;99237.44;;;-1.99;100.00
70206;BME280;57593;55.896;37.396;2022-12-29T03:14:48;99223.16;;;-2.02;100.00
70206;BME280;57593;55.896;37.396;2022-12-29T03:15:46;99229.94;;;-1.95;100.00
70206;BME280;57593;55.896;37.396;2022-12-29T03:16:47;99232.59;;;-1.85;100.00
70206;BME280;57593;55.896;37.396;2022-12-29T03:17:45;99227.59;;;-1.97;100.00
70206;BME280;57593;55.896;37.396;2022-12-29T03:18:22;99230.41;;;-2.04;100.00
70206;BME280;57593;55.896;37.396;2022-12-29T03:19:50;99233.50;;;-2.02;100.00
70206;BME280;57593;55.896;37.396;2022-12-29T03:20:27;99230.44;;;-1.93;100.00
70206;BME280;57593;55.896;37.396;2022-12-29T03:21:06;99242.66;;;-1.89;100.00
70206;BME280;57593;55.896;37.396;2022-12-29T03:21:44;99239.34;;;-1.79;100.00
70206;BME280;57593;55.896;37.396;2022-12-29T03:22:43;99243.09;;;-2.02;100.00
70206;BME280;57593;55.896;37.396;2022-12-29T03:23:18;99232.16;;;-2.09;100.00
70206;BME280;57593;55.896;37.396;2022-12-29T03:23:50;99227.25;;;-2.06;100.00
70206;BME280;57593;55.896;37.396;2022-12-29T03:24:31;99239.00;;;-1.93;100.00
70206;BME280;57593;55.896;37.396;2022-12-29T03:25:09;99242.38;;;-1.92;100.00
70206;BME280;57593;55.896;37.396;2022-12-29T03:25:44;99236.63;;;-2.00;100.00
70206;BME280;57593;55.896;37.396;2022-12-29T03:26:19;99238.22;;;-1.93;100.00
70206;BME280;57593;55.896;37.396;2022-12-29T03:26:54;99245.03;;;-1.82;100.00
70206;BME280;57593;55.896;37.396;2022-12-29T03:27:33;99240.63;;;-1.82;100.00
70206;BME280;57593;55.896;37.396;2022-12-29T03:28:12;99243.97;;;-1.81;100.00
70206;BME280;57593;55.896;37.396;2022-12-29T03:28:52;99245.56;;;-1.80;100.00
70206;BME280;57593;55.896;37.396;2022-12-29T03:29:30;99242.72;;;-1.73;100.00
70206;BME280;57593;55.896;37.396;2022-12-29T03:30:04;99238.50;;;-1.90;100.00
70206;BME280;57593;55.896;37.396;2022-12-29T03:30:38;99247.28;;;-1.96;100.00
70206;BME280;57593;55.896;37.396;2022-12-29T03:31:10;99246.97;;;-2.00;100.00
70206;BME280;57593;55.896;37.396;2022-12-29T03:31:44;99256.47;;;-2.10;100.00
70206;BME280;57593;55.896;37.396;2022-12-29T03:32:16;99237.91;;;-2.02;100.00
70206;BME280;57593;55.896;37.396;2022-12-29T03:32:54;99249.38;;;-1.88;100.00
70206;BME280;57593;55.896;37.396;2022-12-29T03:33:29;99245.81;;;-1.82;100.00
70206;BME280;57593;55.896;37.396;2022-12-29T03:34:05;99248.38;;;-1.82;100.00
70206;BME280;57593;55.896;37.396;2022-12-29T03:34:37;99246.63;;;-1.76;100.00
70206;BME280;57593;55.896;37.396;2022-12-29T03:35:11;99253.06;;;-1.84;100.00
70206;BME280;57593;55.896;37.396;2022-12-29T03:35:48;99246.56;;;-1.81;100.00
70206;BME280;57593;55.896;37.396;2022-12-29T03:36:27;99252.06;;;-1.72;100.00
70206;BME280;57593;55.896;37.396;2022-12-29T03:37:05;99249.72;;;-1.74;100.00
70206;BME280;57593;55.896;37.396;2022-12-29T03:37:40;99252.88;;;-1.67;100.00
70206;BME280;57593;55.896;37.396;2022-12-29T03:38:15;99249.81;;;-1.58;100.00
70206;BME280;57593;55.896;37.396;2022-12-29T03:39:03;99258.34;;;-1.63;100.00
70206;BME280;57593;55.896;37.396;2022-12-29T03:39:37;99255.94;;;-1.75;100.00
70206;BME280;57593;55.896;37.396;2022-12-29T03:40:08;99253.06;;;-1.78;100.00
70206;BME280;57593;55.896;37.396;2022-12-29T03:40:42;99255.69;;;-1.73;100.00
70206;BME280;57593;55.896;37.396;2022-12-29T03:41:18;99264.03;;;-1.61;100.00
70206;BME280;57593;55.896;37.396;2022-12-29T03:41:54;99265.59;;;-1.65;100.00
70206;BME280;57593;55.896;37.396;2022-12-29T03:42:31;99259.03;;;-1.78;100.00
70206;BME280;57593;55.896;37.396;2022-12-29T03:43:03;99263.19;;;-1.72;100.00
70206;BME280;57593;55.896;37.396;2022-12-29T03:43:38;99263.69;;;-1.80;100.00
70206;BME280;57593;55.896;37.396;2022-12-29T03:44:09;99254.88;;;-1.79;100.00